Time;durP1;ratioP1;P1;durP2;ratioP2;P2;SDS_P1;SDS_P2;PMS_P1;PMS_P2;Temp;Humidity;BMP_temperature;BMP_pressure;BME280_temperature;BME280_humidity;BME280_pressure;Samples;Min_cycle;Max_cycle;Signal;HPM_P1;HPM_P2
2021/08/24 00:01:28;;;;;;;;;;;16.10;91.80;;;16.19;80.08;101570.25;4997312;28;19930;-69
2021/08/24 00:03:55;;;;;;;;;;;16.00;91.70;;;16.20;80.18;101574.72;4997595;28;19976;-69
2021/08/24 00:06:22;;;;;;;;;;;16.00;91.90;;;16.19;80.08;101566.66;4997396;28;19929;-69
2021/08/24 00:08:49;;;;;;;;;;;16.00;91.90;;;16.15;80.04;101568.09;5014886;28;19936;-69
2021/08/24 00:11:16;;;;;;;;;;;16.00;91.80;;;16.14;80.08;101566.38;5017552;28;20768;-69
2021/08/24 00:13:44;;;;;;;;;;;16.00;92.00;;;16.12;79.87;101565.72;5017532;28;20019;-69
2021/08/24 00:16:14;;;;;;;;;;;16.00;92.00;;;16.07;80.09;101566.31;5016679;28;19929;-69
2021/08/24 00:18:41;;;;;;;;;;;15.90;92.00;;;16.07;80.18;101570.94;5017087;28;20184;-69
2021/08/24 00:21:09;;;;;;;;;;;15.90;91.90;;;16.06;80.28;101563.78;5017026;28;20445;-69
2021/08/24 00:23:36;;;;;;;;;;;15.90;92.00;;;16.02;80.14;101572.38;5017115;28;19956;-69
2021/08/24 00:26:03;;;;;;;;;;;15.90;92.00;;;16.03;79.97;101565.88;5016342;28;19936;-69
2021/08/24 00:28:31;;;;;;;;;;;15.90;92.10;;;16.02;79.88;101572.38;5016900;28;19929;-69
2021/08/24 00:30:58;;;;;;;;;;;15.90;91.90;;;16.03;79.81;101568.59;5017056;28;19961;-69
2021/08/24 00:33:27;;;;;;;;;;;15.90;91.90;;;16.00;79.87;101573.63;5017277;28;20408;-69
2021/08/24 00:35:54;;;;;;;;;;;15.80;91.90;;;15.96;79.72;101572.34;5021208;28;19960;-69
2021/08/24 00:38:23;;;;;;;;;;;15.80;91.80;;;15.94;80.08;101572.53;5021046;28;20144;-69
2021/08/24 00:40:52;;;;;;;;;;;15.80;92.10;;;15.95;80.03;101571.47;5021164;28;20042;-69
2021/08/24 00:43:21;;;;;;;;;;;15.80;92.10;;;15.94;80.17;101578.00;5021337;28;19972;-69
2021/08/24 00:45:51;;;;;;;;;;;15.80;92.10;;;15.92;80.08;101577.34;5021069;28;20324;-69
2021/08/24 00:48:23;;;;;;;;;;;15.80;92.20;;;15.94;80.41;101568.94;5021502;28;20039;-69
2021/08/24 00:50:52;;;;;;;;;;;15.80;92.30;;;15.92;80.40;101571.88;5004006;28;20348;-69
2021/08/24 00:53:22;;;;;;;;;;;15.80;92.30;;;15.92;80.31;101565.53;5021153;28;19968;-69
2021/08/24 00:55:51;;;;;;;;;;;15.80;92.20;;;15.89;80.83;101572.25;5020562;28;19982;-69
2021/08/24 00:58:19;;;;;;;;;;;15.80;92.40;;;15.91;80.74;101572.91;5021658;28;20463;-69
2021/08/24 01:00:46;;;;;;;;;;;15.90;92.50;;;15.88;80.87;101576.03;5022328;28;19948;-71
2021/08/24 01:03:17;;;;;;;;;;;15.90;92.40;;;15.89;80.82;101580.47;5022712;28;19929;-70
2021/08/24 01:05:45;;;;;;;;;;;15.80;92.40;;;15.87;81.02;101576.22;5021835;28;20837;-69
2021/08/24 01:08:21;;;;;;;;;;;15.90;92.60;;;15.85;81.08;101576.41;5023862;28;19925;-70
2021/08/24 01:10:55;;;;;;;;;;;15.90;92.70;;;15.81;81.31;101575.13;5023330;28;19936;-71
2021/08/24 01:13:34;;;;;;;;;;;15.80;92.60;;;15.77;81.34;101574.66;5022765;28;19933;-70
2021/08/24 01:16:08;;;;;;;;;;;15.80;92.70;;;15.78;81.18;101576.38;5023841;28;20076;-69
2021/08/24 01:18:41;;;;;;;;;;;15.80;92.60;;;15.82;81.03;101576.78;5022175;28;19983;-70
2021/08/24 01:24:01;;;;;;;;;;;15.70;92.50;;;15.79;80.64;101578.03;4964536;28;19965;-71
2021/08/24 01:26:38;;;;;;;;;;;15.70;92.50;;;15.81;80.43;101569.63;4945079;29;19941;-72
2021/08/24 01:29:52;;;;;;;;;;;15.70;92.40;;;15.80;80.19;101581.63;4944849;29;19934;-71
2021/08/24 01:32:32;;;;;;;;;;;15.60;92.30;;;15.77;79.98;101574.66;4938565;29;19976;-69
2021/08/24 01:35:21;;;;;;;;;;;15.60;92.30;;;15.73;80.25;101580.69;4944392;29;20349;-69
2021/08/24 01:37:58;;;;;;;;;;;15.60;92.30;;;15.72;80.08;101581.72;4944386;29;19942;-69
2021/08/24 01:40:40;;;;;;;;;;;15.50;92.40;;;15.70;80.28;101578.31;4943178;29;19977;-69
2021/08/24 01:43:11;;;;;;;;;;;15.50;92.50;;;15.70;80.35;101584.66;4945427;29;19930;-69
2021/08/24 01:45:43;;;;;;;;;;;15.50;92.70;;;15.67;80.36;101578.69;4944280;28;19982;-69
2021/08/24 01:48:15;;;;;;;;;;;15.50;92.70;;;15.66;80.32;101582.50;4945710;29;19927;-69
2021/08/24 01:50:45;;;;;;;;;;;15.40;92.60;;;15.62;80.24;101585.63;4951910;29;19936;-69
2021/08/24 01:53:18;;;;;;;;;;;15.50;92.70;;;15.60;80.27;101592.34;4944763;29;20357;-69
2021/08/24 01:55:47;;;;;;;;;;;15.40;92.60;;;15.60;80.23;101595.94;4956600;28;19932;-69
2021/08/24 01:58:19;;;;;;;;;;;15.40;92.70;;;15.55;80.57;101598.38;4941145;29;20354;-69
2021/08/24 02:00:49;;;;;;;;;;;15.40;92.80;;;15.55;80.49;101592.06;4939769;29;19935;-69
2021/08/24 02:03:20;;;;;;;;;;;15.40;92.70;;;15.53;80.29;101595.00;4941831;29;19982;-69
2021/08/24 02:05:50;;;;;;;;;;;15.40;92.70;;;15.52;80.25;101593.31;4942451;28;19982;-69
2021/08/24 02:08:22;;;;;;;;;;;15.40;92.70;;;15.47;80.59;101593.00;4945145;29;19934;-69
2021/08/24 02:10:51;;;;;;;;;;;15.40;92.90;;;15.47;80.86;101587.53;4940636;29;19966;-69
2021/08/24 02:13:20;;;;;;;;;;;15.30;92.90;;;15.43;80.87;101594.44;4945995;29;19986;-69
2021/08/24 02:15:49;;;;;;;;;;;15.40;92.90;;;15.39;81.02;101595.88;4940306;29;20033;-69
2021/08/24 02:18:19;;;;;;;;;;;15.30;92.90;;;15.35;80.99;101591.81;4936083;29;20026;-69
2021/08/24 02:20:50;;;;;;;;;;;15.30;92.80;;;15.39;80.89;101593.13;4937933;29;20421;-69
2021/08/24 02:23:23;;;;;;;;;;;15.20;92.70;;;15.39;80.46;101587.63;4941695;28;19930;-69
2021/08/24 02:25:53;;;;;;;;;;;15.20;92.60;;;15.38;80.30;101599.63;4941170;29;19938;-69
2021/08/24 02:28:24;;;;;;;;;;;15.20;92.60;;;15.39;80.31;101595.88;4941489;28;19973;-69
2021/08/24 02:30:59;;;;;;;;;;;15.10;92.40;;;15.39;79.81;101591.22;4941095;29;19931;-69
2021/08/24 02:33:29;;;;;;;;;;;15.10;92.40;;;15.33;79.86;101596.63;4940527;29;19937;-69
2021/08/24 02:35:59;;;;;;;;;;;15.10;92.50;;;15.31;79.78;101604.19;4940212;28;19930;-68
2021/08/24 02:38:29;;;;;;;;;;;15.10;92.60;;;15.27;79.88;101608.34;4940334;29;19926;-69
2021/08/24 02:41:01;;;;;;;;;;;15.00;92.50;;;15.25;79.57;101603.91;4940215;29;19931;-70
2021/08/24 02:43:34;;;;;;;;;;;15.00;92.40;;;15.25;79.46;101597.59;4939594;29;19941;-71
2021/08/24 02:46:07;;;;;;;;;;;15.00;92.40;;;15.23;80.02;101595.03;4938863;29;19985;-69
2021/08/24 02:48:36;;;;;;;;;;;15.00;92.70;;;15.18;80.21;101600.22;4939824;29;19970;-69
2021/08/24 02:51:04;;;;;;;;;;;15.00;93.10;;;15.18;80.35;101602.94;4938200;28;19973;-69
2021/08/24 02:53:35;;;;;;;;;;;15.00;93.10;;;15.17;80.16;101600.41;4940620;29;19930;-69
2021/08/24 02:56:02;;;;;;;;;;;15.00;93.10;;;15.16;80.34;101604.19;4938842;28;20044;-71
2021/08/24 02:58:29;;;;;;;;;;;15.00;93.00;;;15.13;80.18;101601.81;4939370;29;20049;-70
2021/08/24 03:00:56;;;;;;;;;;;14.90;92.90;;;15.11;79.99;101602.00;4940491;29;20654;-70
2021/08/24 03:03:23;;;;;;;;;;;14.90;92.80;;;15.10;80.17;101599.44;4939742;29;20002;-71
2021/08/24 03:05:51;;;;;;;;;;;14.90;92.90;;;15.09;80.28;101609.56;4938993;29;20007;-69
2021/08/24 03:08:18;;;;;;;;;;;14.90;93.00;;;15.05;80.15;101600.84;4939843;29;19937;-69
2021/08/24 03:10:48;;;;;;;;;;;14.90;93.00;;;15.05;80.27;101602.75;4940669;29;20780;-70
2021/08/24 03:13:23;;;;;;;;;;;14.90;93.00;;;15.04;80.37;101612.88;4940739;29;20061;-71
2021/08/24 03:15:53;;;;;;;;;;;14.80;92.80;;;14.99;80.25;101611.72;4940315;28;19930;-70
2021/08/24 03:18:24;;;;;;;;;;;14.80;92.80;;;15.00;79.92;101611.56;4940359;29;19930;-69
2021/08/24 03:20:54;;;;;;;;;;;14.80;92.80;;;14.99;79.96;101612.56;4940650;29;20375;-69
2021/08/24 03:23:22;;;;;;;;;;;14.70;92.80;;;14.99;79.79;101611.72;4940955;29;19969;-69
2021/08/24 03:25:51;;;;;;;;;;;14.70;93.00;;;14.97;79.94;101616.56;4940718;29;20457;-69
2021/08/24 03:28:21;;;;;;;;;;;14.70;93.00;;;14.96;80.00;101614.84;4941409;28;20493;-69
2021/08/24 03:30:49;;;;;;;;;;;14.70;93.10;;;14.98;79.77;101618.25;4941696;28;19993;-69
2021/08/24 03:33:17;;;;;;;;;;;14.70;93.10;;;14.91;79.87;101618.16;4940500;29;20009;-69
2021/08/24 03:35:45;;;;;;;;;;;14.70;93.00;;;14.89;79.78;101613.88;4940230;28;19937;-69
2021/08/24 03:38:13;;;;;;;;;;;14.60;92.80;;;14.93;79.74;101620.72;4971096;23;20388;-69
2021/08/24 03:40:40;;;;;;;;;;;14.70;93.20;;;14.92;79.30;101616.25;5038892;28;19940;-69
2021/08/24 03:43:09;;;;;;;;;;;14.60;92.80;;;14.90;79.59;101621.06;5038889;28;20128;-69
2021/08/24 03:45:36;;;;;;;;;;;14.60;92.80;;;14.86;79.61;101617.84;5037530;28;19955;-72
2021/08/24 03:48:03;;;;;;;;;;;14.60;92.90;;;14.85;79.81;101627.13;5039225;28;19936;-70
2021/08/24 03:50:30;;;;;;;;;;;14.60;93.00;;;14.84;79.74;101622.66;5038821;28;19928;-71
2021/08/24 03:52:58;;;;;;;;;;;14.50;93.10;;;14.85;79.72;101618.91;5037818;28;20003;-70
2021/08/24 03:55:25;;;;;;;;;;;14.50;93.10;;;14.83;79.68;101626.44;5038637;28;20027;-72
2021/08/24 03:57:53;;;;;;;;;;;14.50;93.30;;;14.80;79.90;101622.19;5038508;28;19929;-71
2021/08/24 04:00:22;;;;;;;;;;;14.50;93.20;;;14.79;79.54;101620.50;5038671;28;20002;-69
2021/08/24 04:02:49;;;;;;;;;;;14.50;92.90;;;14.77;79.64;101617.06;5038892;28;19994;-70
2021/08/24 04:05:16;;;;;;;;;;;14.50;93.00;;;14.77;79.25;101627.19;5037365;28;19931;-70
2021/08/24 04:07:46;;;;;;;;;;;14.40;92.90;;;14.75;79.15;101627.34;5038588;28;19929;-71
2021/08/24 04:10:14;;;;;;;;;;;14.40;92.90;;;14.72;79.10;101630.47;5041156;28;19931;-72
2021/08/24 04:12:42;;;;;;;;;;;14.40;92.80;;;14.71;78.94;101628.78;5041671;28;19972;-70
2021/08/24 04:15:09;;;;;;;;;;;14.30;92.80;;;14.70;79.22;101631.69;5042458;28;19933;-70
2021/08/24 04:17:39;;;;;;;;;;;14.30;93.00;;;14.69;79.01;101630.84;5045127;28;19933;-68
2021/08/24 04:20:09;;;;;;;;;;;14.30;93.00;;;14.68;78.92;101634.63;5043392;28;20475;-68
2021/08/24 04:22:38;;;;;;;;;;;14.30;93.00;;;14.64;78.91;101638.75;5044207;28;19975;-68
2021/08/24 04:25:06;;;;;;;;;;;14.30;93.00;;;14.57;79.25;101637.81;5040740;28;20015;-68
2021/08/24 04:27:34;;;;;;;;;;;14.20;92.80;;;14.55;78.90;101639.84;5039823;28;19929;-67
2021/08/24 04:30:01;;;;;;;;;;;14.20;92.80;;;14.55;79.16;101631.63;5040928;28;19929;-67
2021/08/24 04:32:30;;;;;;;;;;;14.20;93.00;;;14.51;79.07;101639.34;5035646;28;19929;-67
2021/08/24 04:34:58;;;;;;;;;;;14.10;92.80;;;14.53;79.11;101636.44;5031169;28;19936;-67
2021/08/24 04:37:27;;;;;;;;;;;14.10;92.90;;;14.52;79.00;101640.22;5039387;28;19933;-67
2021/08/24 04:39:54;;;;;;;;;;;14.10;92.80;;;14.49;79.21;101635.97;5039798;28;19929;-67
2021/08/24 04:42:21;;;;;;;;;;;14.20;92.90;;;14.50;78.93;101648.59;5038336;28;19929;-67
2021/08/24 04:44:48;;;;;;;;;;;14.20;92.90;;;14.49;79.38;101652.38;5037366;28;19929;-66
2021/08/24 04:47:15;;;;;;;;;;;14.10;93.00;;;14.51;79.42;101649.44;5039706;28;19980;-66
2021/08/24 04:49:42;;;;;;;;;;;14.20;93.10;;;14.51;79.32;101658.53;5039146;28;20553;-67
2021/08/24 04:52:11;;;;;;;;;;;14.20;93.10;;;14.50;79.64;101650.50;5039317;28;20007;-67
2021/08/24 04:54:38;;;;;;;;;;;14.20;93.10;;;14.47;79.88;101654.47;5040548;28;19940;-70
2021/08/24 04:57:07;;;;;;;;;;;14.30;93.10;;;14.52;79.93;101656.63;5037825;28;19928;-67
2021/08/24 04:59:34;;;;;;;;;;;14.30;93.20;;;14.48;80.28;101650.66;5038422;28;19960;-68
2021/08/24 05:02:01;;;;;;;;;;;14.30;93.20;;;14.47;80.53;101649.81;5038390;28;20386;-67
2021/08/24 05:04:28;;;;;;;;;;;14.40;93.30;;;14.48;80.84;101662.47;5038211;28;20462;-67
2021/08/24 05:06:56;;;;;;;;;;;14.40;93.30;;;14.52;80.65;101651.16;5038868;28;20821;-67
2021/08/24 05:09:24;;;;;;;;;;;14.50;93.30;;;14.51;81.00;101658.53;5039399;28;19929;-67
2021/08/24 05:11:51;;;;;;;;;;;14.50;93.20;;;14.52;81.07;101662.97;5037556;28;19929;-67
2021/08/24 05:14:18;;;;;;;;;;;14.50;93.20;;;14.55;80.87;101661.75;5036863;28;20371;-67
2021/08/24 05:16:45;;;;;;;;;;;14.60;93.20;;;14.57;80.90;101662.47;5039529;28;20023;-69
2021/08/24 05:19:13;;;;;;;;;;;14.60;93.10;;;14.60;81.17;101667.56;5038784;28;19998;-68
2021/08/24 05:21:40;;;;;;;;;;;14.70;93.20;;;14.57;81.34;101665.22;5040320;28;20411;-68
2021/08/24 05:24:07;;;;;;;;;;;14.60;93.00;;;14.57;81.31;101662.47;5055997;28;19964;-67
2021/08/24 05:26:35;;;;;;;;;;;14.70;93.30;;;14.58;81.64;101664.16;5037946;28;20479;-67
2021/08/24 05:29:03;;;;;;;;;;;14.70;93.20;;;14.57;81.65;101667.94;5037929;28;19929;-67
2021/08/24 05:31:30;;;;;;;;;;;14.70;93.10;;;14.63;81.86;101664.47;5039632;28;19967;-67
2021/08/24 05:33:57;;;;;;;;;;;14.80;93.10;;;14.65;82.16;101674.19;5039340;28;20354;-67
2021/08/24 05:36:24;;;;;;;;;;;14.90;93.20;;;14.65;82.50;101667.88;5038896;28;19931;-67
2021/08/24 05:38:51;;;;;;;;;;;15.00;93.20;;;14.64;82.78;101674.38;5039204;28;20553;-67
2021/08/24 05:41:19;;;;;;;;;;;15.00;93.00;;;14.68;83.10;101673.00;5039539;28;19928;-69
2021/08/24 05:43:47;;;;;;;;;;;15.10;93.10;;;14.69;83.69;101671.94;5039401;28;19960;-68
2021/08/24 05:46:15;;;;;;;;;;;15.20;93.00;;;14.76;83.80;101664.69;5040100;28;19964;-67
2021/08/24 05:48:42;;;;;;;;;;;15.30;93.00;;;14.79;84.04;101658.88;5039365;28;20019;-68
2021/08/24 05:51:11;;;;;;;;;;;15.40;92.90;;;14.83;84.11;101664.81;5041298;28;20067;-71
2021/08/24 05:53:38;;;;;;;;;;;15.50;92.90;;;14.84;84.43;101669.25;5041607;28;19936;-69
2021/08/24 05:56:09;;;;;;;;;;;15.60;92.90;;;14.85;84.80;101669.09;5042492;28;19960;-68
2021/08/24 05:58:37;;;;;;;;;;;15.60;92.70;;;14.89;85.15;101675.06;5038690;28;19929;-70
2021/08/24 06:01:06;;;;;;;;;;;15.70;92.80;;;14.94;85.39;101671.75;5133101;23;19976;-67
2021/08/24 06:03:37;;;;;;;;;;;15.80;92.40;;;15.00;85.43;101676.47;5037995;28;20442;-67
2021/08/24 06:06:04;;;;;;;;;;;15.90;92.50;;;15.06;85.27;101675.75;5038106;28;19929;-67
2021/08/24 06:08:31;;;;;;;;;;;16.00;92.40;;;15.09;85.39;101678.09;5036767;28;20583;-67
2021/08/24 06:10:58;;;;;;;;;;;16.10;92.20;;;15.15;85.24;101682.84;5038704;28;20018;-66
2021/08/24 06:13:25;;;;;;;;;;;16.20;91.80;;;15.18;85.19;101679.75;5039235;28;19929;-67
2021/08/24 06:15:52;;;;;;;;;;;16.30;91.50;;;15.16;86.28;101680.97;5035700;28;20445;-67
2021/08/24 06:18:21;;;;;;;;;;;16.30;91.50;;;15.19;85.89;101681.47;5041213;28;20411;-67
2021/08/24 06:20:48;;;;;;;;;;;16.40;91.30;;;15.28;85.64;101689.59;5054348;28;19961;-67
2021/08/24 06:23:15;;;;;;;;;;;16.40;91.10;;;15.33;85.61;101688.00;5037542;28;20028;-68
2021/08/24 06:25:43;;;;;;;;;;;16.50;91.00;;;15.36;85.75;101687.59;5038646;28;20015;-67
2021/08/24 06:28:10;;;;;;;;;;;16.50;90.90;;;15.36;85.48;101684.84;5033346;28;20424;-67
2021/08/24 06:30:38;;;;;;;;;;;16.60;90.80;;;15.43;85.67;101690.47;5030246;28;19929;-67
2021/08/24 06:33:05;;;;;;;;;;;16.60;90.70;;;15.46;85.28;101695.59;5019124;28;19936;-68
2021/08/24 06:35:34;;;;;;;;;;;16.60;90.10;;;15.49;85.70;101686.13;5037357;28;19970;-67
2021/08/24 06:38:01;;;;;;;;;;;16.70;90.20;;;15.49;86.10;101686.97;5038379;28;19928;-67
2021/08/24 06:40:28;;;;;;;;;;;17.00;89.90;;;15.55;86.44;101691.69;5037647;28;19933;-67
2021/08/24 06:42:55;;;;;;;;;;;17.10;89.30;;;15.61;85.58;101696.44;5037972;28;19925;-67
2021/08/24 06:45:25;;;;;;;;;;;17.30;88.40;;;15.69;85.13;101686.38;5036889;28;19929;-67
2021/08/24 06:47:52;;;;;;;;;;;17.30;88.00;;;15.74;84.70;101695.78;5037701;28;20285;-67
2021/08/24 06:50:20;;;;;;;;;;;17.30;87.90;;;15.81;84.67;101693.16;5037779;28;19928;-67
2021/08/24 06:52:49;;;;;;;;;;;17.40;87.70;;;15.85;84.60;101697.22;5036952;28;19929;-67
2021/08/24 06:55:17;;;;;;;;;;;17.40;87.70;;;15.88;84.64;101696.84;5036241;28;20304;-67
2021/08/24 06:57:45;;;;;;;;;;;17.50;87.70;;;15.92;85.30;101698.16;5037810;28;20033;-67
2021/08/24 07:00:15;;;;;;;;;;;17.60;87.80;;;15.98;85.41;101697.38;5036473;28;19935;-67
2021/08/24 07:02:42;;;;;;;;;;;17.60;87.80;;;16.05;85.03;101697.47;5036498;28;20027;-68
2021/08/24 07:05:10;;;;;;;;;;;17.70;87.50;;;16.08;84.62;101693.50;5035043;28;20445;-68
2021/08/24 07:07:37;;;;;;;;;;;17.70;87.20;;;16.12;84.38;101698.41;5036741;28;19933;-69
2021/08/24 07:10:09;;;;;;;;;;;17.80;86.70;;;16.16;83.69;101693.38;5035507;28;19964;-67
2021/08/24 07:12:36;;;;;;;;;;;17.80;86.30;;;16.19;83.38;101690.25;5037253;28;19929;-67
2021/08/24 07:15:04;;;;;;;;;;;17.90;86.40;;;16.21;82.97;101690.91;5035660;28;19971;-67
2021/08/24 07:17:31;;;;;;;;;;;17.90;85.80;;;16.28;83.14;101685.47;5037763;28;19929;-67
2021/08/24 07:19:58;;;;;;;;;;;17.90;85.90;;;16.33;82.96;101685.75;5036205;28;19936;-67
2021/08/24 07:22:25;;;;;;;;;;;18.00;85.20;;;16.38;82.78;101684.13;5035894;28;19968;-67
2021/08/24 07:24:53;;;;;;;;;;;18.10;85.20;;;16.42;82.41;101688.19;5050472;28;19929;-67
2021/08/24 07:27:21;;;;;;;;;;;18.10;84.70;;;16.47;82.82;101684.00;5040634;28;19940;-67
2021/08/24 07:29:48;;;;;;;;;;;18.20;85.10;;;16.52;82.59;101693.34;5038683;28;19929;-68
2021/08/24 07:32:15;;;;;;;;;;;18.30;84.30;;;16.57;81.16;101690.03;5037912;28;19929;-67
2021/08/24 07:34:42;;;;;;;;;;;18.30;83.00;;;16.61;80.54;101691.34;5034740;28;19929;-68
2021/08/24 07:37:09;;;;;;;;;;;18.30;82.70;;;16.66;80.57;101694.38;5037074;28;19987;-68
2021/08/24 07:39:38;;;;;;;;;;;18.40;83.00;;;16.70;80.34;101690.19;5037626;28;19956;-68
2021/08/24 07:42:05;;;;;;;;;;;18.40;83.00;;;16.72;79.49;101690.81;5036906;28;20474;-68
2021/08/24 07:44:35;;;;;;;;;;;18.40;82.60;;;16.76;79.63;101686.63;5035821;28;19987;-68
2021/08/24 07:47:06;;;;;;;;;;;18.50;82.70;;;16.81;80.05;101686.91;5036080;28;19982;-68
2021/08/24 07:49:35;;;;;;;;;;;18.50;82.30;;;16.85;79.68;101686.53;5037956;28;19929;-67
2021/08/24 07:52:03;;;;;;;;;;;18.60;82.40;;;16.90;76.55;101695.03;5037848;28;20564;-68
2021/08/24 07:54:30;;;;;;;;;;;18.70;80.30;;;16.94;77.91;101694.44;5010031;28;19932;-68
2021/08/24 07:56:57;;;;;;;;;;;18.70;81.30;;;17.02;80.64;101693.47;5036664;28;19998;-68
2021/08/24 07:59:24;;;;;;;;;;;18.90;83.50;;;17.08;79.38;101687.16;5037591;28;19929;-68
2021/08/24 08:01:54;;;;;;;;;;;18.90;81.90;;;17.09;78.25;101699.84;5037361;28;19929;-68
2021/08/24 08:04:22;;;;;;;;;;;19.00;80.30;;;17.13;77.33;101701.16;5036908;28;19951;-68
2021/08/24 08:06:49;;;;;;;;;;;19.00;79.50;;;17.16;76.45;101700.75;5036164;28;19925;-68
2021/08/24 08:09:16;;;;;;;;;;;19.00;78.80;;;17.18;75.49;101693.16;5037384;28;19933;-69
2021/08/24 08:11:43;;;;;;;;;;;19.00;78.00;;;17.22;75.17;101701.03;5017759;28;20012;-68
2021/08/24 08:14:12;;;;;;;;;;;19.00;78.20;;;17.26;75.07;101703.16;5036623;28;20293;-68
2021/08/24 08:16:39;;;;;;;;;;;19.10;78.50;;;17.29;73.94;101715.69;5036302;28;20367;-68
2021/08/24 08:19:08;;;;;;;;;;;19.10;76.70;;;17.31;74.55;101710.84;5037161;28;20685;-68
2021/08/24 08:21:37;;;;;;;;;;;19.10;78.00;;;17.33;72.29;101700.47;5036869;28;19929;-68
2021/08/24 08:24:05;;;;;;;;;;;19.10;75.10;;;17.30;71.23;101698.97;5036456;28;19952;-68
2021/08/24 08:26:33;;;;;;;;;;;19.00;75.00;;;17.34;70.94;101702.16;5036575;28;19929;-68
2021/08/24 08:29:03;;;;;;;;;;;19.00;74.90;;;17.43;71.82;101706.47;5037354;28;19936;-68
2021/08/24 08:31:31;;;;;;;;;;;19.10;75.50;;;17.44;70.23;101702.69;5036910;28;19935;-68
2021/08/24 08:33:58;;;;;;;;;;;19.20;74.00;;;17.46;70.16;101699.69;5035934;28;19932;-68
2021/08/24 08:36:28;;;;;;;;;;;19.20;73.60;;;17.48;70.43;101703.97;5035946;28;19968;-68
2021/08/24 08:38:55;;;;;;;;;;;19.30;74.00;;;17.50;69.25;101696.38;5035346;28;19937;-68
2021/08/24 08:41:31;;;;;;;;;;;19.30;73.50;;;17.58;68.81;101696.19;5036803;28;20282;-68
2021/08/24 08:44:01;;;;;;;;;;;19.40;73.60;;;17.56;68.50;101701.06;5034844;28;19929;-67
2021/08/24 08:46:35;;;;;;;;;;;19.40;71.90;;;17.57;67.58;101702.78;5036254;28;19928;-67
2021/08/24 08:49:08;;;;;;;;;;;19.40;71.90;;;17.60;67.84;101698.75;5035215;28;19929;-68
2021/08/24 08:51:58;;;;;;;;;;;19.40;71.90;;;17.64;68.27;101690.94;5032569;28;19936;-68
2021/08/24 08:54:45;;;;;;;;;;;19.40;72.70;;;17.64;68.04;101697.28;5037484;28;20031;-68
2021/08/24 08:57:15;;;;;;;;;;;19.40;72.20;;;17.70;68.96;101695.63;5041277;28;19979;-68
2021/08/24 08:59:47;;;;;;;;;;;19.50;73.30;;;17.76;68.47;101683.78;5042238;28;19975;-68
2021/08/24 09:02:22;;;;;;;;;;;19.50;72.10;;;17.77;67.41;101691.03;5045360;28;19944;-68
2021/08/24 09:04:49;;;;;;;;;;;19.50;71.30;;;17.75;65.96;101687.63;5040707;28;19928;-68
2021/08/24 09:07:25;;;;;;;;;;;19.50;70.20;;;17.76;66.24;101689.31;5040623;28;19982;-68
2021/08/24 09:09:52;;;;;;;;;;;19.40;70.40;;;17.77;66.27;101683.59;5039161;28;19928;-68
2021/08/24 09:12:20;;;;;;;;;;;19.40;71.00;;;17.83;64.70;101689.34;5040167;28;20447;-68
2021/08/24 09:14:50;;;;;;;;;;;19.50;69.10;;;17.81;64.10;101686.81;5039133;28;19929;-68
2021/08/24 09:17:24;;;;;;;;;;;19.40;69.60;;;17.81;63.67;101684.03;5040711;28;19990;-68
2021/08/24 09:19:55;;;;;;;;;;;19.40;67.90;;;17.86;63.64;101687.09;5039849;28;19939;-67
2021/08/24 09:22:25;;;;;;;;;;;19.50;69.40;;;17.92;64.50;101688.16;5036728;28;19944;-68
2021/08/24 09:24:52;;;;;;;;;;;19.50;69.30;;;17.91;63.13;101679.03;5039015;28;19929;-68
2021/08/24 09:27:26;;;;;;;;;;;19.50;67.60;;;17.94;63.33;101686.91;5038836;28;19975;-68
2021/08/24 09:29:54;;;;;;;;;;;19.60;68.60;;;17.97;62.99;101683.75;5037853;28;19979;-68
2021/08/24 09:32:25;;;;;;;;;;;19.60;68.20;;;18.08;63.69;101675.94;5039626;28;19986;-68
2021/08/24 09:35:00;;;;;;;;;;;19.70;68.90;;;18.09;62.25;101683.16;5039343;28;20007;-68
2021/08/24 09:37:29;;;;;;;;;;;19.80;66.60;;;18.05;61.55;101690.09;5039832;28;19929;-68
2021/08/24 09:40:00;;;;;;;;;;;19.70;66.00;;;18.05;61.24;101687.34;5037866;28;19992;-68
2021/08/24 09:42:35;;;;;;;;;;;19.70;65.90;;;18.05;62.07;101681.84;5039878;28;19928;-68
2021/08/24 09:45:06;;;;;;;;;;;19.60;67.50;;;18.07;60.65;101690.78;5038778;28;19929;-68
2021/08/24 09:47:33;;;;;;;;;;;19.80;66.30;;;18.05;58.85;101688.22;5039015;28;20055;-68
2021/08/24 09:50:05;;;;;;;;;;;19.70;63.40;;;18.05;57.54;101692.88;5039360;28;19987;-68
2021/08/24 09:52:37;;;;;;;;;;;19.60;62.40;;;18.05;56.49;101681.84;5039066;28;19954;-67
2021/08/24 09:55:06;;;;;;;;;;;19.60;61.30;;;18.05;55.96;101681.84;5038316;28;20014;-68
2021/08/24 09:57:37;;;;;;;;;;;19.60;61.40;;;18.08;56.87;101675.94;5037675;28;19933;-68
2021/08/24 10:00:07;;;;;;;;;;;19.60;61.50;;;18.08;56.68;101684.19;5038406;28;19975;-68
2021/08/24 10:02:41;;;;;;;;;;;19.70;62.70;;;18.10;57.30;101673.81;5038792;28;19994;-67
2021/08/24 10:05:11;;;;;;;;;;;19.70;62.70;;;18.12;57.74;101685.47;5036383;28;19929;-68
2021/08/24 10:07:42;;;;;;;;;;;19.70;63.60;;;18.15;59.22;101677.66;5038286;28;19933;-68
2021/08/24 10:10:20;;;;;;;;;;;19.80;64.60;;;18.19;59.19;101689.13;5037902;28;19983;-68
2021/08/24 10:12:51;;;;;;;;;;;19.80;64.00;;;18.19;58.25;101672.59;5038390;28;19928;-68
2021/08/24 10:18:30;;;;;;;;;;;19.80;64.70;;;18.28;59.58;101670.50;5034123;28;19936;-68
2021/08/24 10:21:00;;;;;;;;;;;20.00;65.50;;;18.28;56.82;101676.03;5036236;28;20028;-68
2021/08/24 10:23:34;;;;;;;;;;;20.00;62.20;;;18.24;55.48;101700.38;5038918;28;19961;-68
2021/08/24 10:26:09;;;;;;;;;;;19.80;60.40;;;18.25;55.63;101688.28;5037146;28;19929;-68
2021/08/24 10:28:40;;;;;;;;;;;19.90;61.10;;;18.27;55.59;101669.63;5038101;28;20572;-68
2021/08/24 10:31:29;;;;;;;;;;;19.80;61.70;;;18.32;57.86;101672.63;5038647;28;19929;-68
2021/08/24 10:33:59;;;;;;;;;;;19.90;63.30;;;18.35;57.94;101674.97;5038043;28;19975;-68
2021/08/24 10:36:32;;;;;;;;;;;20.00;63.30;;;18.36;57.97;101671.16;5037830;28;19987;-68
2021/08/24 10:39:04;;;;;;;;;;;20.00;63.70;;;18.40;58.08;101659.72;5038508;28;19977;-68
2021/08/24 10:41:38;;;;;;;;;;;20.00;63.50;;;18.42;57.62;101665.88;5052780;28;19944;-68
2021/08/24 10:44:14;;;;;;;;;;;20.10;62.70;;;18.42;58.15;101671.38;5036761;28;19929;-68
2021/08/24 10:47:03;;;;;;;;;;;20.10;62.90;;;18.43;57.95;101673.06;5036585;28;20031;-68
2021/08/24 10:49:31;;;;;;;;;;;20.10;63.10;;;18.46;59.08;101669.91;5038840;28;20736;-68
2021/08/24 10:52:09;;;;;;;;;;;20.10;64.50;;;18.47;57.27;101674.38;5037226;28;20048;-68
2021/08/24 10:54:55;;;;;;;;;;;20.10;62.90;;;18.48;56.32;101670.53;5037215;28;20286;-68
2021/08/24 10:57:33;;;;;;;;;;;20.10;61.80;;;18.48;55.30;101673.31;5037553;28;19987;-68
2021/08/24 11:00:05;;;;;;;;;;;20.10;60.80;;;18.49;56.42;101666.75;5037195;28;19972;-68
2021/08/24 11:02:50;;;;;;;;;;;20.10;62.20;;;18.49;56.63;101659.31;5037739;28;19936;-68
2021/08/24 11:05:26;;;;;;;;;;;20.10;62.20;;;18.51;56.55;101670.97;5037046;28;20430;-68
2021/08/24 11:08:00;;;;;;;;;;;20.10;62.00;;;18.50;55.05;101669.25;5037018;28;19935;-68
2021/08/24 11:10:37;;;;;;;;;;;20.10;61.20;;;18.54;55.80;101675.22;5027779;28;19995;-70
2021/08/24 11:13:27;;;;;;;;;;;20.20;61.20;;;18.56;54.20;101667.56;5033429;28;19929;-70
2021/08/24 11:16:00;;;;;;;;;;;20.20;59.50;;;18.51;51.48;101664.63;5036759;28;19975;-69
2021/08/24 11:18:38;;;;;;;;;;;20.10;57.30;;;18.55;53.88;101657.63;5036205;28;19928;-70
2021/08/24 11:21:12;;;;;;;;;;;20.10;59.00;;;18.53;53.66;101657.84;5036653;28;19929;-70
2021/08/24 11:24:00;;;;;;;;;;;20.10;60.00;;;18.54;55.20;101659.53;5036329;28;20453;-70
2021/08/24 11:26:34;;;;;;;;;;;20.00;60.60;;;18.52;54.57;101669.94;5036691;28;20034;-70
2021/08/24 11:29:11;;;;;;;;;;;20.10;60.50;;;18.53;54.71;101651.47;5036851;28;19962;-69